ADDS METAR Data INFO
IDs: Format: Raw Decoded Include TAF

Data at: 0430 UTC 24 Apr 2018

KRWL 240353Z AUTO 05008KT 10SM BKN023 02/M03 A3030 RMK AO2 SLPNO T00171028
KRWL 240253Z AUTO 04011KT 10SM BKN021 BKN095 02/M02 A3026 RMK AO2 SLPNO 60000 T00221017 52039
KRWL 240153Z AUTO 36014KT 10SM OVC100 04/M01 A3021 RMK AO2 PK WND 01026/0100 SLPNO T00441006
KRWL 240053Z AUTO 01018G25KT 10SM OVC095 07/M02 A3017 RMK AO2 PK WND 02028/2355 RAE02 SLPNO P0000 T00721017
KRWL 232353Z AUTO 35024G33KT 10SM -RA FEW075 OVC090 11/00 A3012 RMK AO2 PK WND 36033/2349 WSHFT 2314 RAB35 SLPNO P0000 60000 T01110000 10156 20111 53003
KRWL 232334Z AUTO 34027G33KT 10SM OVC090 13/M01 A3010 RMK AO2 PK WND 34033/2334 WSHFT 2314 T01281006
KRWL 232253Z AUTO 26013G24KT 10SM FEW055 SCT070 OVC090 14/M07 A3010 RMK AO2 PK WND 25029/2232 SLPNO T01391072
KRWL 232153Z AUTO 29019G24KT 10SM FEW060 BKN080 OVC100 14/M07 A3010 RMK AO2 SLPNO T01391067
KRWL 232053Z AUTO 27013G28KT 10SM FEW050 BKN080 OVC100 13/M03 A3011 RMK AO2 PK WND 22029/2041 RAB33E52 SLPNO P0000 60000 T01281028 55004
KRWL 231953Z AUTO 25020G26KT 10SM BKN065 OVC080 14/00 A3010 RMK AO2 PK WND 25026/1953 SLPNO T01390000
KRWL 231853Z AUTO 27015G22KT 10SM FEW048 SCT100 14/01 A3011 RMK AO2 PK WND 29028/1806 SLPNO T01440006
KRWL 231753Z AUTO 29019G29KT 10SM FEW048 12/01 A3013 RMK AO2 PK WND 30034/1728 RAB34E40 SLPNO P0000 60000 T01220006 51016
KRWL 231653Z AUTO A3011 RMK AO2 SLPNO PWINO FZRANO $
KRWL 231553Z AUTO A3008 RMK AO2 SLPNO PWINO FZRANO $
KRWL 231453Z AUTO A3006 RMK AO2 SLPNO 50000 PWINO FZRANO $
KRWL 231353Z AUTO A3007 RMK AO2 SLPNO PWINO FZRANO $
KRWL 231253Z AUTO A3008 RMK AO2 SLPNO PWINO FZRANO $
KRWL 231153Z AUTO A3006 RMK AO2 SLPNO 57003 PWINO FZRANO $
KRWL 231053Z AUTO A3006 RMK AO2 SLPNO PWINO FZRANO $
KRWL 230953Z AUTO A3007 RMK AO2 SLPNO PWINO FZRANO $
KRWL 230853Z AUTO A3007 RMK AO2 SLPNO 58003 PWINO FZRANO $
KRWL 230753Z AUTO A3008 RMK AO2 SLPNO PWINO FZRANO $
KRWL 230653Z AUTO A3008 RMK AO2 SLPNO PWINO FZRANO $
KRWL 230553Z AUTO A3008 RMK AO2 SLPNO 52003 PWINO FZRANO $
KRWL 230453Z AUTO A3007 RMK AO2 SLPNO PWINO FZRANO $
KRWL 230353Z AUTO A3008 RMK AO2 SLPNO PWINO FZRANO $
KRWL 230253Z AUTO A3007 RMK AO2 SLPNO 55003 PWINO FZRANO $
KRWL 230153Z AUTO A3006 RMK AO2 SLPNO PWINO FZRANO $
KRWL 230053Z AUTO A3006 RMK AO2 SLPNO PWINO FZRANO $
KRWL 222353Z AUTO A3008 RMK AO2 SLPNO 56011 PWINO FZRANO $
KRWL 222253Z AUTO A3008 RMK AO2 SLPNO PWINO FZRANO $
KRWL 222153Z AUTO A3010 RMK AO2 SLPNO PWINO FZRANO $
KRWL 222053Z AUTO A3012 RMK AO2 SLPNO 57017 PWINO FZRANO $
KRWL 221953Z AUTO A3014 RMK AO2 SLPNO PWINO FZRANO $
KRWL 221853Z AUTO A3016 RMK AO2 SLPNO PWINO FZRANO $
KRWL 221753Z AUTO A3018 RMK AO2 SLPNO 58011 PWINO FZRANO $
KRWL 221653Z AUTO A3020 RMK AO2 SLPNO PWINO FZRANO $